sensor_id;sensor_type;location;lat;lon;timestamp;pressure;altitude;pressure_sealevel;temperature;humidity
43125;BME280;49182;50.788;7.318;2023-08-08T00:03:08;100871.34;;;12.22;100.00
43125;BME280;49182;50.788;7.318;2023-08-08T00:08:12;100819.06;;;11.86;100.00
43125;BME280;49182;50.788;7.318;2023-08-08T00:13:14;100860.88;;;12.11;100.00
43125;BME280;49182;50.788;7.318;2023-08-08T00:18:16;100731.41;;;11.31;100.00
43125;BME280;49182;50.788;7.318;2023-08-08T00:23:19;100845.84;;;12.02;100.00
43125;BME280;49182;50.788;7.318;2023-08-08T00:28:21;100847.22;;;11.96;100.00
43125;BME280;49182;50.788;7.318;2023-08-08T00:33:22;100843.16;;;11.92;100.00
43125;BME280;49182;50.788;7.318;2023-08-08T00:38:25;100856.09;;;11.86;100.00
43125;BME280;49182;50.788;7.318;2023-08-08T00:43:27;100830.41;;;11.67;100.00
43125;BME280;49182;50.788;7.318;2023-08-08T00:48:31;100845.66;;;11.74;100.00
43125;BME280;49182;50.788;7.318;2023-08-08T00:53:35;100830.28;;;11.59;100.00
43125;BME280;49182;50.788;7.318;2023-08-08T00:58:37;100841.16;;;11.65;100.00
43125;BME280;49182;50.788;7.318;2023-08-08T01:03:39;100838.06;;;11.60;100.00
43125;BME280;49182;50.788;7.318;2023-08-08T01:08:46;100818.53;;;11.42;100.00
43125;BME280;49182;50.788;7.318;2023-08-08T01:13:50;100825.66;;;11.42;100.00
43125;BME280;49182;50.788;7.318;2023-08-08T01:18:53;100823.06;;;11.30;100.00
43125;BME280;49182;50.788;7.318;2023-08-08T01:29:09;100844.00;;;11.13;100.00
43125;BME280;49182;50.788;7.318;2023-08-08T01:34:11;100840.81;;;11.09;100.00
43125;BME280;49182;50.788;7.318;2023-08-08T01:39:14;100841.88;;;10.97;100.00
43125;BME280;49182;50.788;7.318;2023-08-08T01:44:20;100838.09;;;11.00;100.00
43125;BME280;49182;50.788;7.318;2023-08-08T01:49:22;100821.06;;;10.83;100.00
43125;BME280;49182;50.788;7.318;2023-08-08T01:54:24;100827.81;;;10.97;100.00
43125;BME280;49182;50.788;7.318;2023-08-08T01:59:27;100834.19;;;10.94;100.00
43125;BME280;49182;50.788;7.318;2023-08-08T02:04:29;100827.63;;;10.88;100.00
43125;BME280;49182;50.788;7.318;2023-08-08T02:09:31;100827.63;;;10.88;100.00
43125;BME280;49182;50.788;7.318;2023-08-08T02:14:34;100825.25;;;10.85;100.00
43125;BME280;49182;50.788;7.318;2023-08-08T02:19:35;100822.03;;;10.82;100.00
43125;BME280;49182;50.788;7.318;2023-08-08T02:24:37;100812.28;;;10.82;100.00
43125;BME280;49182;50.788;7.318;2023-08-08T02:29:41;100799.56;;;10.67;100.00
43125;BME280;49182;50.788;7.318;2023-08-08T02:34:42;100809.75;;;10.71;100.00
43125;BME280;49182;50.788;7.318;2023-08-08T02:39:44;100752.53;;;10.30;100.00
43125;BME280;49182;50.788;7.318;2023-08-08T02:44:51;100805.56;;;10.48;100.00
43125;BME280;49182;50.788;7.318;2023-08-08T02:49:52;100764.25;;;10.17;100.00
43125;BME280;49182;50.788;7.318;2023-08-08T02:54:55;100806.97;;;10.31;100.00
43125;BME280;49182;50.788;7.318;2023-08-08T02:59:58;100800.78;;;10.21;100.00
43125;BME280;49182;50.788;7.318;2023-08-08T03:05:05;100800.81;;;10.10;100.00
43125;BME280;49182;50.788;7.318;2023-08-08T03:10:08;100789.91;;;10.03;100.00
43125;BME280;49182;50.788;7.318;2023-08-08T03:15:14;100744.97;;;9.73;100.00
43125;BME280;49182;50.788;7.318;2023-08-08T03:20:17;100782.31;;;9.89;100.00
43125;BME280;49182;50.788;7.318;2023-08-08T03:25:20;100761.97;;;9.69;100.00
43125;BME280;49182;50.788;7.318;2023-08-08T03:30:23;100768.81;;;9.71;100.00
43125;BME280;49182;50.788;7.318;2023-08-08T03:35:25;100761.41;;;9.65;100.00
43125;BME280;49182;50.788;7.318;2023-08-08T03:40:27;100765.38;;;9.60;100.00
43125;BME280;49182;50.788;7.318;2023-08-08T03:45:30;100764.31;;;9.51;100.00
43125;BME280;49182;50.788;7.318;2023-08-08T03:50:32;100765.81;;;9.44;100.00
43125;BME280;49182;50.788;7.318;2023-08-08T03:55:34;100769.63;;;9.40;100.00
43125;BME280;49182;50.788;7.318;2023-08-08T04:00:39;100770.13;;;9.34;100.00
43125;BME280;49182;50.788;7.318;2023-08-08T04:05:43;100764.28;;;9.19;100.00
43125;BME280;49182;50.788;7.318;2023-08-08T04:10:46;100768.22;;;9.25;100.00
43125;BME280;49182;50.788;7.318;2023-08-08T04:15:49;100767.16;;;9.16;100.00
43125;BME280;49182;50.788;7.318;2023-08-08T04:20:51;100768.34;;;9.12;100.00
43125;BME280;49182;50.788;7.318;2023-08-08T04:25:53;100774.56;;;9.11;100.00
43125;BME280;49182;50.788;7.318;2023-08-08T04:30:56;100773.47;;;9.14;100.00
43125;BME280;49182;50.788;7.318;2023-08-08T04:35:58;100778.75;;;9.14;100.00
43125;BME280;49182;50.788;7.318;2023-08-08T04:41:00;100777.66;;;9.27;100.00
43125;BME280;49182;50.788;7.318;2023-08-08T04:46:03;100784.06;;;9.57;100.00
43125;BME280;49182;50.788;7.318;2023-08-08T04:51:05;100772.03;;;9.86;100.00
43125;BME280;49182;50.788;7.318;2023-08-08T04:56:07;100774.59;;;9.97;100.00
43125;BME280;49182;50.788;7.318;2023-08-08T05:01:10;100748.41;;;9.85;100.00
43125;BME280;49182;50.788;7.318;2023-08-08T05:06:12;100757.59;;;9.90;100.00
43125;BME280;49182;50.788;7.318;2023-08-08T05:11:14;100785.69;;;10.12;100.00
43125;BME280;49182;50.788;7.318;2023-08-08T05:16:17;100765.53;;;10.22;100.00
43125;BME280;49182;50.788;7.318;2023-08-08T05:21:20;100778.31;;;10.27;100.00
43125;BME280;49182;50.788;7.318;2023-08-08T05:26:22;100767.97;;;10.35;100.00
43125;BME280;49182;50.788;7.318;2023-08-08T05:31:26;100766.13;;;10.56;100.00
43125;BME280;49182;50.788;7.318;2023-08-08T05:36:27;100684.22;;;10.16;100.00
43125;BME280;49182;50.788;7.318;2023-08-08T05:41:29;100758.75;;;10.80;100.00
43125;BME280;49182;50.788;7.318;2023-08-08T05:46:32;100765.38;;;10.95;100.00
43125;BME280;49182;50.788;7.318;2023-08-08T05:51:34;100766.81;;;11.09;100.00
43125;BME280;49182;50.788;7.318;2023-08-08T05:56:36;100758.66;;;11.22;100.00
43125;BME280;49182;50.788;7.318;2023-08-08T06:01:39;100768.56;;;11.39;100.00
43125;BME280;49182;50.788;7.318;2023-08-08T06:06:41;100772.50;;;11.54;100.00
43125;BME280;49182;50.788;7.318;2023-08-08T06:11:43;100772.09;;;11.68;100.00
43125;BME280;49182;50.788;7.318;2023-08-08T06:16:46;100773.97;;;11.87;100.00
43125;BME280;49182;50.788;7.318;2023-08-08T06:21:48;100780.22;;;12.05;100.00
43125;BME280;49182;50.788;7.318;2023-08-08T06:26:50;100728.81;;;11.98;100.00
43125;BME280;49182;50.788;7.318;2023-08-08T06:31:53;100776.00;;;12.51;100.00
43125;BME280;49182;50.788;7.318;2023-08-08T06:36:55;100723.34;;;12.38;100.00
43125;BME280;49182;50.788;7.318;2023-08-08T06:41:57;100775.47;;;12.94;100.00
43125;BME280;49182;50.788;7.318;2023-08-08T06:47:11;100782.09;;;13.17;100.00
43125;BME280;49182;50.788;7.318;2023-08-08T06:52:13;100778.59;;;13.44;100.00
43125;BME280;49182;50.788;7.318;2023-08-08T06:57:15;100774.91;;;13.72;100.00
43125;BME280;49182;50.788;7.318;2023-08-08T07:02:18;100669.31;;;13.41;99.92
43125;BME280;49182;50.788;7.318;2023-08-08T07:07:20;100776.03;;;14.41;98.41
43125;BME280;49182;50.788;7.318;2023-08-08T07:12:22;100774.25;;;14.67;95.47
43125;BME280;49182;50.788;7.318;2023-08-08T07:17:25;100749.47;;;14.92;92.61
43125;BME280;49182;50.788;7.318;2023-08-08T07:22:27;100751.03;;;15.11;90.46
43125;BME280;49182;50.788;7.318;2023-08-08T07:27:29;100675.50;;;14.96;90.12
43125;BME280;49182;50.788;7.318;2023-08-08T07:32:32;100715.53;;;15.45;88.28
43125;BME280;49182;50.788;7.318;2023-08-08T07:37:34;100721.78;;;15.77;84.34
43125;BME280;49182;50.788;7.318;2023-08-08T07:42:36;100648.91;;;15.62;84.08
43125;BME280;49182;50.788;7.318;2023-08-08T07:47:39;100695.84;;;16.04;81.07
43125;BME280;49182;50.788;7.318;2023-08-08T07:52:41;100725.91;;;16.45;79.39
43125;BME280;49182;50.788;7.318;2023-08-08T07:57:43;100725.22;;;16.59;76.36
43125;BME280;49182;50.788;7.318;2023-08-08T08:02:46;100719.84;;;16.83;73.25
43125;BME280;49182;50.788;7.318;2023-08-08T08:07:48;100646.41;;;16.56;71.49
43125;BME280;49182;50.788;7.318;2023-08-08T08:12:50;100728.22;;;17.19;69.04
43125;BME280;49182;50.788;7.318;2023-08-08T08:17:54;100729.63;;;17.38;68.71
43125;BME280;49182;50.788;7.318;2023-08-08T08:22:55;100729.00;;;17.59;66.44
43125;BME280;49182;50.788;7.318;2023-08-08T08:27:57;100738.72;;;17.52;63.90
43125;BME280;49182;50.788;7.318;2023-08-08T08:33:00;100726.31;;;17.59;62.78
43125;BME280;49182;50.788;7.318;2023-08-08T08:38:02;100716.41;;;17.45;61.48
43125;BME280;49182;50.788;7.318;2023-08-08T08:43:04;100718.09;;;17.91;62.49
43125;BME280;49182;50.788;7.318;2023-08-08T08:48:09;100722.38;;;18.00;62.14
43125;BME280;49182;50.788;7.318;2023-08-08T08:53:11;100724.59;;;18.11;60.79
43125;BME280;49182;50.788;7.318;2023-08-08T08:58:14;100722.81;;;18.04;60.62
43125;BME280;49182;50.788;7.318;2023-08-08T09:03:18;100723.50;;;18.06;60.56
43125;BME280;49182;50.788;7.318;2023-08-08T09:08:20;100712.31;;;18.40;61.23
43125;BME280;49182;50.788;7.318;2023-08-08T09:13:22;100720.63;;;18.45;59.36
43125;BME280;49182;50.788;7.318;2023-08-08T09:18:26;100635.03;;;18.01;61.11
43125;BME280;49182;50.788;7.318;2023-08-08T09:23:28;100716.09;;;18.45;60.23
43125;BME280;49182;50.788;7.318;2023-08-08T09:28:29;100720.00;;;18.72;62.40
43125;BME280;49182;50.788;7.318;2023-08-08T09:33:33;100701.84;;;18.82;59.25
43125;BME280;49182;50.788;7.318;2023-08-08T09:38:34;100699.31;;;19.10;57.15
43125;BME280;49182;50.788;7.318;2023-08-08T09:43:36;100715.03;;;19.13;55.90
43125;BME280;49182;50.788;7.318;2023-08-08T09:48:40;100702.88;;;18.81;56.89
43125;BME280;49182;50.788;7.318;2023-08-08T09:53:42;100710.50;;;18.84;57.20
43125;BME280;49182;50.788;7.318;2023-08-08T09:58:46;100707.56;;;18.94;56.65
43125;BME280;49182;50.788;7.318;2023-08-08T10:03:51;100703.34;;;19.21;58.48
43125;BME280;49182;50.788;7.318;2023-08-08T10:08:53;100709.34;;;19.23;56.99
43125;BME280;49182;50.788;7.318;2023-08-08T10:13:57;100713.03;;;19.22;53.88
43125;BME280;49182;50.788;7.318;2023-08-08T10:19:02;100728.69;;;19.04;52.60
43125;BME280;49182;50.788;7.318;2023-08-08T10:24:05;100710.94;;;19.17;51.20
43125;BME280;49182;50.788;7.318;2023-08-08T10:29:07;100718.56;;;19.35;52.54
43125;BME280;49182;50.788;7.318;2023-08-08T10:34:10;100726.97;;;19.47;53.49
43125;BME280;49182;50.788;7.318;2023-08-08T10:39:15;100720.72;;;19.25;52.03
43125;BME280;49182;50.788;7.318;2023-08-08T10:44:22;100720.31;;;19.43;52.15
43125;BME280;49182;50.788;7.318;2023-08-08T10:49:25;100709.00;;;19.62;52.56
43125;BME280;49182;50.788;7.318;2023-08-08T10:54:27;100716.41;;;19.81;49.52
43125;BME280;49182;50.788;7.318;2023-08-08T10:59:35;100711.25;;;20.07;48.53
43125;BME280;49182;50.788;7.318;2023-08-08T11:04:39;100708.94;;;20.26;48.78
43125;BME280;49182;50.788;7.318;2023-08-08T11:09:42;100703.84;;;20.58;49.20
43125;BME280;49182;50.788;7.318;2023-08-08T11:14:43;100711.53;;;20.68;49.25
43125;BME280;49182;50.788;7.318;2023-08-08T11:19:46;100711.06;;;20.58;47.47
43125;BME280;49182;50.788;7.318;2023-08-08T11:24:48;100714.63;;;20.37;47.52
43125;BME280;49182;50.788;7.318;2023-08-08T11:29:50;100710.00;;;20.31;47.63
43125;BME280;49182;50.788;7.318;2023-08-08T11:34:54;100685.25;;;20.29;48.66
43125;BME280;49182;50.788;7.318;2023-08-08T11:39:56;100699.44;;;20.51;48.08
43125;BME280;49182;50.788;7.318;2023-08-08T11:44:58;100702.31;;;20.43;48.61
43125;BME280;49182;50.788;7.318;2023-08-08T11:50:01;100668.47;;;20.42;46.20
43125;BME280;49182;50.788;7.318;2023-08-08T11:55:05;100691.13;;;20.39;46.69
43125;BME280;49182;50.788;7.318;2023-08-08T12:00:08;100656.22;;;20.33;47.27
43125;BME280;49182;50.788;7.318;2023-08-08T12:05:21;100686.84;;;20.79;46.82
43125;BME280;49182;50.788;7.318;2023-08-08T12:10:23;100662.72;;;20.51;46.95
43125;BME280;49182;50.788;7.318;2023-08-08T12:15:28;100685.09;;;20.09;48.03
43125;BME280;49182;50.788;7.318;2023-08-08T12:20:31;100675.63;;;19.86;49.89
43125;BME280;49182;50.788;7.318;2023-08-08T12:25:33;100680.56;;;19.61;50.19
43125;BME280;49182;50.788;7.318;2023-08-08T12:30:35;100680.97;;;19.64;49.02
43125;BME280;49182;50.788;7.318;2023-08-08T12:35:38;100672.75;;;19.87;50.19
43125;BME280;49182;50.788;7.318;2023-08-08T12:40:40;100669.75;;;19.75;50.43
43125;BME280;49182;50.788;7.318;2023-08-08T12:45:42;100677.28;;;19.87;50.35
43125;BME280;49182;50.788;7.318;2023-08-08T12:50:45;100688.25;;;19.70;51.39
43125;BME280;49182;50.788;7.318;2023-08-08T12:55:46;100672.81;;;19.51;51.85
43125;BME280;49182;50.788;7.318;2023-08-08T13:00:48;100668.34;;;19.37;53.69
43125;BME280;49182;50.788;7.318;2023-08-08T13:05:51;100675.88;;;19.12;52.93
43125;BME280;49182;50.788;7.318;2023-08-08T13:10:53;100677.91;;;19.10;54.99
43125;BME280;49182;50.788;7.318;2023-08-08T13:15:54;100691.38;;;19.17;55.55
43125;BME280;49182;50.788;7.318;2023-08-08T13:20:57;100688.44;;;18.97;56.17
43125;BME280;49182;50.788;7.318;2023-08-08T13:25:59;100685.06;;;18.88;55.77
43125;BME280;49182;50.788;7.318;2023-08-08T13:31:01;100685.25;;;18.87;55.83
43125;BME280;49182;50.788;7.318;2023-08-08T13:36:05;100689.84;;;18.78;56.85
43125;BME280;49182;50.788;7.318;2023-08-08T13:41:07;100695.44;;;18.54;56.82
43125;BME280;49182;50.788;7.318;2023-08-08T13:46:08;100689.44;;;18.52;57.52
43125;BME280;49182;50.788;7.318;2023-08-08T13:51:11;100679.13;;;18.49;58.81
43125;BME280;49182;50.788;7.318;2023-08-08T13:56:13;100619.81;;;18.16;57.99
43125;BME280;49182;50.788;7.318;2023-08-08T14:01:15;100688.25;;;18.54;58.36
43125;BME280;49182;50.788;7.318;2023-08-08T14:06:18;100672.59;;;18.66;57.58
43125;BME280;49182;50.788;7.318;2023-08-08T14:11:20;100631.19;;;18.33;57.19
43125;BME280;49182;50.788;7.318;2023-08-08T14:16:21;100678.97;;;18.65;58.20
43125;BME280;49182;50.788;7.318;2023-08-08T14:21:25;100686.38;;;18.63;57.72
43125;BME280;49182;50.788;7.318;2023-08-08T14:26:26;100631.94;;;18.27;58.62
43125;BME280;49182;50.788;7.318;2023-08-08T14:31:28;100699.19;;;18.68;58.68
43125;BME280;49182;50.788;7.318;2023-08-08T14:36:31;100686.72;;;18.60;57.12
43125;BME280;49182;50.788;7.318;2023-08-08T14:41:33;100690.78;;;18.56;57.32
43125;BME280;49182;50.788;7.318;2023-08-08T14:46:34;100691.63;;;18.56;57.88
43125;BME280;49182;50.788;7.318;2023-08-08T14:51:40;100706.50;;;18.36;58.71
43125;BME280;49182;50.788;7.318;2023-08-08T14:56:41;100720.22;;;18.18;62.69
43125;BME280;49182;50.788;7.318;2023-08-08T15:01:43;100721.34;;;18.39;65.25
43125;BME280;49182;50.788;7.318;2023-08-08T15:06:46;100721.53;;;18.52;62.92
43125;BME280;49182;50.788;7.318;2023-08-08T15:11:48;100724.53;;;18.86;63.37
43125;BME280;49182;50.788;7.318;2023-08-08T15:16:51;100725.59;;;19.72;61.37
43125;BME280;49182;50.788;7.318;2023-08-08T15:21:55;100714.00;;;20.35;58.63
43125;BME280;49182;50.788;7.318;2023-08-08T15:26:57;100717.69;;;20.62;55.87
43125;BME280;49182;50.788;7.318;2023-08-08T15:31:59;100707.88;;;20.82;55.35
43125;BME280;49182;50.788;7.318;2023-08-08T15:37:02;100713.75;;;20.58;55.32
43125;BME280;49182;50.788;7.318;2023-08-08T15:42:04;100703.88;;;20.37;55.47
43125;BME280;49182;50.788;7.318;2023-08-08T15:47:06;100709.06;;;19.90;56.64
43125;BME280;49182;50.788;7.318;2023-08-08T15:52:09;100715.31;;;20.80;55.27
43125;BME280;49182;50.788;7.318;2023-08-08T15:57:11;100697.47;;;21.81;51.95
43125;BME280;49182;50.788;7.318;2023-08-08T16:02:13;100696.66;;;21.74;51.97
43125;BME280;49182;50.788;7.318;2023-08-08T16:07:19;100698.38;;;22.01;51.29
43125;BME280;49182;50.788;7.318;2023-08-08T16:12:21;100688.56;;;21.61;51.50
43125;BME280;49182;50.788;7.318;2023-08-08T16:17:23;100691.72;;;21.10;51.82
43125;BME280;49182;50.788;7.318;2023-08-08T16:22:26;100682.09;;;20.88;51.90
43125;BME280;49182;50.788;7.318;2023-08-08T16:27:28;100685.56;;;21.16;52.17
43125;BME280;49182;50.788;7.318;2023-08-08T16:32:31;100700.03;;;21.15;52.35
43125;BME280;49182;50.788;7.318;2023-08-08T16:37:34;100701.06;;;21.21;52.13
43125;BME280;49182;50.788;7.318;2023-08-08T16:42:36;100693.56;;;21.10;52.21
43125;BME280;49182;50.788;7.318;2023-08-08T16:47:37;100702.81;;;20.59;53.68
43125;BME280;49182;50.788;7.318;2023-08-08T16:52:40;100700.84;;;20.40;53.74
43125;BME280;49182;50.788;7.318;2023-08-08T16:57:42;100705.59;;;19.96;54.71
43125;BME280;49182;50.788;7.318;2023-08-08T17:02:44;100725.19;;;19.54;55.83
43125;BME280;49182;50.788;7.318;2023-08-08T17:07:47;100713.47;;;19.40;57.36
43125;BME280;49182;50.788;7.318;2023-08-08T17:12:48;100713.63;;;19.17;57.96
43125;BME280;49182;50.788;7.318;2023-08-08T17:17:50;100706.25;;;19.05;58.46
43125;BME280;49182;50.788;7.318;2023-08-08T17:22:53;100696.13;;;18.85;58.41
43125;BME280;49182;50.788;7.318;2023-08-08T17:27:55;100696.94;;;18.86;59.21
43125;BME280;49182;50.788;7.318;2023-08-08T17:32:57;100694.09;;;18.73;59.13
43125;BME280;49182;50.788;7.318;2023-08-08T17:38:00;100681.09;;;18.70;61.56
43125;BME280;49182;50.788;7.318;2023-08-08T17:43:02;100681.16;;;18.47;60.34
43125;BME280;49182;50.788;7.318;2023-08-08T17:48:05;100670.50;;;18.62;60.89
43125;BME280;49182;50.788;7.318;2023-08-08T17:53:08;100651.94;;;18.60;60.09
43125;BME280;49182;50.788;7.318;2023-08-08T17:58:10;100662.06;;;18.35;60.22
43125;BME280;49182;50.788;7.318;2023-08-08T18:03:11;100668.50;;;18.41;60.62
43125;BME280;49182;50.788;7.318;2023-08-08T18:08:15;100666.41;;;18.51;60.18
43125;BME280;49182;50.788;7.318;2023-08-08T18:13:17;100667.88;;;18.39;59.98
43125;BME280;49182;50.788;7.318;2023-08-08T18:18:19;100631.41;;;17.94;60.84
43125;BME280;49182;50.788;7.318;2023-08-08T18:23:22;100630.31;;;18.03;60.68
43125;BME280;49182;50.788;7.318;2023-08-08T18:28:24;100668.13;;;18.14;61.00
43125;BME280;49182;50.788;7.318;2023-08-08T18:33:26;100666.66;;;18.12;61.45
43125;BME280;49182;50.788;7.318;2023-08-08T18:38:29;100658.13;;;17.94;62.20
43125;BME280;49182;50.788;7.318;2023-08-08T18:43:31;100658.03;;;17.87;62.69
43125;BME280;49182;50.788;7.318;2023-08-08T18:48:32;100681.81;;;17.97;62.91
43125;BME280;49182;50.788;7.318;2023-08-08T18:53:35;100677.72;;;17.86;63.60
43125;BME280;49182;50.788;7.318;2023-08-08T18:58:37;100690.81;;;17.81;64.16
43125;BME280;49182;50.788;7.318;2023-08-08T19:03:39;100676.38;;;17.67;64.68
43125;BME280;49182;50.788;7.318;2023-08-08T19:08:42;100672.41;;;17.63;64.48
43125;BME280;49182;50.788;7.318;2023-08-08T19:13:44;100678.22;;;17.67;64.99
43125;BME280;49182;50.788;7.318;2023-08-08T19:18:46;100684.28;;;17.61;65.19
43125;BME280;49182;50.788;7.318;2023-08-08T19:23:49;100683.09;;;17.55;65.83
43125;BME280;49182;50.788;7.318;2023-08-08T19:28:50;100666.50;;;17.45;66.80
43125;BME280;49182;50.788;7.318;2023-08-08T19:33:52;100677.47;;;17.50;67.02
43125;BME280;49182;50.788;7.318;2023-08-08T19:39:08;100678.66;;;17.48;66.69
43125;BME280;49182;50.788;7.318;2023-08-08T19:44:10;100667.97;;;17.48;66.93
43125;BME280;49182;50.788;7.318;2023-08-08T19:49:12;100642.78;;;17.27;67.04
43125;BME280;49182;50.788;7.318;2023-08-08T19:54:15;100656.03;;;17.35;68.39
43125;BME280;49182;50.788;7.318;2023-08-08T19:59:16;100662.78;;;17.23;68.23
43125;BME280;49182;50.788;7.318;2023-08-08T20:04:18;100668.84;;;17.17;68.16
43125;BME280;49182;50.788;7.318;2023-08-08T20:09:21;100650.22;;;17.09;67.99
43125;BME280;49182;50.788;7.318;2023-08-08T20:14:23;100657.81;;;17.20;69.07
43125;BME280;49182;50.788;7.318;2023-08-08T20:19:25;100649.84;;;17.12;69.02
43125;BME280;49182;50.788;7.318;2023-08-08T20:24:29;100644.88;;;17.09;69.48
43125;BME280;49182;50.788;7.318;2023-08-08T20:29:30;100644.06;;;17.09;71.55
43125;BME280;49182;50.788;7.318;2023-08-08T20:34:32;100576.81;;;16.60;72.72
43125;BME280;49182;50.788;7.318;2023-08-08T20:39:35;100649.16;;;16.87;75.00
43125;BME280;49182;50.788;7.318;2023-08-08T20:44:37;100659.16;;;16.85;75.46
43125;BME280;49182;50.788;7.318;2023-08-08T20:49:39;100650.53;;;16.75;76.31
43125;BME280;49182;50.788;7.318;2023-08-08T20:54:42;100657.25;;;16.63;77.30
43125;BME280;49182;50.788;7.318;2023-08-08T20:59:44;100654.41;;;16.56;78.50
43125;BME280;49182;50.788;7.318;2023-08-08T21:04:46;100635.31;;;16.37;79.36
43125;BME280;49182;50.788;7.318;2023-08-08T21:09:49;100650.13;;;16.47;79.85
43125;BME280;49182;50.788;7.318;2023-08-08T21:14:51;100657.28;;;16.47;81.15
43125;BME280;49182;50.788;7.318;2023-08-08T21:19:52;100655.63;;;16.46;82.06
43125;BME280;49182;50.788;7.318;2023-08-08T21:24:55;100650.13;;;16.47;82.78
43125;BME280;49182;50.788;7.318;2023-08-08T21:29:57;100643.13;;;16.46;84.02
43125;BME280;49182;50.788;7.318;2023-08-08T21:34:59;100641.78;;;16.42;90.78
43125;BME280;49182;50.788;7.318;2023-08-08T21:40:03;100627.50;;;16.35;89.66
43125;BME280;49182;50.788;7.318;2023-08-08T21:45:05;100626.53;;;16.28;91.25
43125;BME280;49182;50.788;7.318;2023-08-08T21:50:07;100622.22;;;16.19;92.78
43125;BME280;49182;50.788;7.318;2023-08-08T21:55:10;100620.59;;;16.10;93.66
43125;BME280;49182;50.788;7.318;2023-08-08T22:00:13;100609.59;;;16.05;94.00
43125;BME280;49182;50.788;7.318;2023-08-08T22:05:16;100605.97;;;15.98;94.79
43125;BME280;49182;50.788;7.318;2023-08-08T22:10:19;100593.47;;;15.90;95.30
43125;BME280;49182;50.788;7.318;2023-08-08T22:15:22;100490.22;;;15.29;95.57
43125;BME280;49182;50.788;7.318;2023-08-08T22:20:23;100574.34;;;15.87;95.90
43125;BME280;49182;50.788;7.318;2023-08-08T22:25:27;100574.53;;;15.85;95.67
43125;BME280;49182;50.788;7.318;2023-08-08T22:30:28;100573.84;;;15.83;96.16
43125;BME280;49182;50.788;7.318;2023-08-08T22:35:30;100564.19;;;15.82;97.51
43125;BME280;49182;50.788;7.318;2023-08-08T22:40:34;100542.94;;;15.66;96.58
43125;BME280;49182;50.788;7.318;2023-08-08T22:45:36;100571.88;;;15.77;96.92
43125;BME280;49182;50.788;7.318;2023-08-08T22:50:38;100553.91;;;15.71;97.71
43125;BME280;49182;50.788;7.318;2023-08-08T22:55:41;100541.28;;;15.65;98.05
43125;BME280;49182;50.788;7.318;2023-08-08T23:00:43;100559.88;;;15.81;100.00
43125;BME280;49182;50.788;7.318;2023-08-08T23:05:45;100548.75;;;15.77;100.00
43125;BME280;49182;50.788;7.318;2023-08-08T23:10:48;100544.25;;;15.70;100.00
43125;BME280;49182;50.788;7.318;2023-08-08T23:15:50;100526.44;;;15.70;100.00
43125;BME280;49182;50.788;7.318;2023-08-08T23:20:51;100523.63;;;15.64;100.00
43125;BME280;49182;50.788;7.318;2023-08-08T23:25:54;100520.81;;;15.65;100.00
43125;BME280;49182;50.788;7.318;2023-08-08T23:30:57;100534.63;;;15.61;100.00
43125;BME280;49182;50.788;7.318;2023-08-08T23:36:00;100442.53;;;15.11;100.00
43125;BME280;49182;50.788;7.318;2023-08-08T23:41:03;100524.81;;;15.61;100.00
43125;BME280;49182;50.788;7.318;2023-08-08T23:46:05;100515.81;;;15.62;100.00
43125;BME280;49182;50.788;7.318;2023-08-08T23:51:07;100510.31;;;15.64;100.00
43125;BME280;49182;50.788;7.318;2023-08-08T23:56:10;100372.44;;;14.80;100.00
